createdAt,value
2022-08-10T00:01:43.483Z,102286.38
2022-08-10T00:04:43.171Z,102286.84
2022-08-10T00:07:43.740Z,102291.66
2022-08-10T00:10:45.257Z,102290.97
2022-08-10T00:13:27.100Z,102292.75
2022-08-10T00:16:07.265Z,102294.13
2022-08-10T00:19:10.623Z,102290.81
2022-08-10T00:22:01.462Z,102284.28
2022-08-10T00:24:43.251Z,102291.94
2022-08-10T00:27:52.711Z,102295.22
2022-08-10T00:30:24.895Z,102290.00
2022-08-10T00:33:20.795Z,102290.00
2022-08-10T00:36:01.427Z,102284.13
2022-08-10T00:38:42.335Z,102278.88
2022-08-10T00:41:36.555Z,102281.63
2022-08-10T00:44:16.121Z,102277.97
2022-08-10T00:46:56.775Z,102274.44
2022-08-10T00:49:37.490Z,102271.91
2022-08-10T00:52:20.031Z,102267.53
2022-08-10T00:55:02.814Z,102268.69
2022-08-10T00:57:41.902Z,102262.38
2022-08-10T01:00:22.410Z,102265.91
2022-08-10T01:03:04.008Z,102270.41
2022-08-10T01:05:53.363Z,102263.69
2022-08-10T01:08:38.076Z,102262.28
2022-08-10T01:12:37.547Z,102265.97
2022-08-10T01:14:50.835Z,102261.88
2022-08-10T01:17:51.580Z,102265.72
2022-08-10T01:20:36.386Z,102261.78
2022-08-10T01:23:45.747Z,102257.88
2022-08-10T01:26:58.702Z,102259.31
2022-08-10T01:29:51.078Z,102265.97
2022-08-10T01:32:43.192Z,102261.91
2022-08-10T01:35:28.066Z,102258.81
2022-08-10T01:38:12.839Z,102253.03
2022-08-10T01:40:58.214Z,102255.19
2022-08-10T01:43:44.849Z,102250.97
2022-08-10T01:46:52.020Z,102254.09
2022-08-10T01:50:01.860Z,102249.88
2022-08-10T01:52:43.799Z,102243.09
2022-08-10T01:55:26.053Z,102254.81
2022-08-10T01:58:06.793Z,102243.38
2022-08-10T02:00:49.931Z,102247.34
2022-08-10T02:03:32.712Z,102247.63
2022-08-10T02:06:35.168Z,102239.75
2022-08-10T02:09:20.289Z,102248.22
2022-08-10T02:12:08.562Z,102245.66
2022-08-10T02:14:54.451Z,102246.25
2022-08-10T02:17:58.264Z,102248.38
2022-08-10T02:20:46.077Z,102244.16
2022-08-10T02:23:28.148Z,102247.84
2022-08-10T02:26:09.398Z,102252.59
2022-08-10T02:28:50.591Z,102243.19
2022-08-10T02:31:31.276Z,102245.16
2022-08-10T02:34:14.165Z,102251.66
2022-08-10T02:37:13.425Z,102253.63
2022-08-10T02:39:54.761Z,102264.63
2022-08-10T02:45:22.577Z,102260.53
2022-08-10T02:45:43.827Z,102259.00
2022-08-10T02:48:26.172Z,102252.25
2022-08-10T02:51:11.183Z,102252.53
2022-08-10T02:53:55.804Z,102256.19
2022-08-10T02:56:40.802Z,102260.72
2022-08-10T02:59:58.907Z,102261.84
2022-08-10T03:02:43.770Z,102259.44
2022-08-10T03:06:05.165Z,102251.69
2022-08-10T03:08:46.239Z,102252.81
2022-08-10T03:12:35.531Z,102248.59
2022-08-10T03:14:30.188Z,102252.41
2022-08-10T03:17:12.465Z,102249.16
2022-08-10T03:20:38.216Z,102251.53
2022-08-10T03:23:17.973Z,102253.53
2022-08-10T03:25:59.821Z,102249.44
2022-08-10T03:29:06.639Z,102244.38
2022-08-10T03:31:47.370Z,102245.22
2022-08-10T03:34:33.487Z,102237.47
2022-08-10T03:37:24.528Z,102240.44
2022-08-10T03:40:07.920Z,102233.41
2022-08-10T03:42:49.238Z,102232.66
2022-08-10T03:45:56.053Z,102236.34
2022-08-10T03:48:48.433Z,102234.66
2022-08-10T03:51:32.148Z,102230.13
2022-08-10T03:54:13.426Z,102223.25
2022-08-10T03:56:53.565Z,102221.84
2022-08-10T03:59:36.276Z,102226.34
2022-08-10T04:02:45.830Z,102235.47
2022-08-10T04:05:39.129Z,102235.59
2022-08-10T04:08:20.240Z,102242.78
2022-08-10T04:11:19.767Z,102242.19
2022-08-10T04:14:38.171Z,102244.03
2022-08-10T04:17:56.889Z,102239.53
2022-08-10T04:20:29.894Z,102242.19
2022-08-10T04:23:18.848Z,102244.75
2022-08-10T04:25:59.935Z,102246.59
2022-08-10T04:28:41.551Z,102245.75
2022-08-10T04:31:23.272Z,102245.47
2022-08-10T04:34:08.641Z,102255.16
2022-08-10T04:36:53.237Z,102253.34
2022-08-10T04:39:33.817Z,102254.19
2022-08-10T04:42:13.697Z,102249.69
2022-08-10T04:45:15.877Z,102259.28
2022-08-10T04:48:40.901Z,102259.28
2022-08-10T04:51:19.217Z,102259.13
2022-08-10T04:54:03.990Z,102265.19
2022-08-10T04:56:50.451Z,102266.59
2022-08-10T04:59:31.829Z,102269.88
2022-08-10T05:02:30.313Z,102267.91
2022-08-10T05:05:11.525Z,102269.31
2022-08-10T05:07:53.881Z,102272.38
2022-08-10T05:10:35.057Z,102268.72
2022-08-10T05:13:16.478Z,102270.56
2022-08-10T05:16:30.683Z,102270.00
2022-08-10T05:19:12.978Z,102267.59
2022-08-10T05:22:04.424Z,102275.22
2022-08-10T05:24:44.198Z,102271.69
2022-08-10T05:27:23.999Z,102273.94
2022-08-10T05:30:11.592Z,102269.69
2022-08-10T05:33:00.923Z,102277.19
2022-08-10T05:35:56.272Z,102268.28
2022-08-10T05:39:12.830Z,102269.81
2022-08-10T05:41:56.733Z,102268.94
2022-08-10T05:44:42.039Z,102271.75
2022-08-10T05:47:24.622Z,102270.16
2022-08-10T05:50:47.929Z,102279.34
2022-08-10T05:54:04.108Z,102277.16
2022-08-10T05:56:56.456Z,102272.31
2022-08-10T06:00:29.376Z,102272.28
2022-08-10T06:03:11.639Z,102278.84
2022-08-10T06:05:55.083Z,102274.41
2022-08-10T06:08:36.681Z,102278.25
2022-08-10T06:12:27.529Z,102284.13
2022-08-10T06:14:59.656Z,102285.44
2022-08-10T06:18:02.763Z,102291.13
2022-08-10T06:20:44.517Z,102281.16
2022-08-10T06:23:27.516Z,102285.97
2022-08-10T06:26:13.428Z,102285.72
2022-08-10T06:29:03.595Z,102283.78
2022-08-10T06:31:49.871Z,102287.88
2022-08-10T06:34:33.315Z,102290.84
2022-08-10T06:37:14.195Z,102288.44
2022-08-10T06:39:55.264Z,102297.59
2022-08-10T06:42:39.816Z,102290.63
2022-08-10T06:45:26.690Z,102295.41
2022-08-10T06:48:11.414Z,102300.69
2022-08-10T06:50:57.981Z,102300.88
2022-08-10T06:53:54.389Z,102301.59
2022-08-10T06:57:17.317Z,102295.25
2022-08-10T07:00:00.413Z,102297.63
2022-08-10T07:02:57.774Z,102299.63
2022-08-10T07:05:40.708Z,102298.41
2022-08-10T07:08:24.200Z,102292.16
2022-08-10T07:11:08.842Z,102299.69
2022-08-10T07:14:15.458Z,102304.19
2022-08-10T07:16:56.701Z,102305.09
2022-08-10T07:19:49.457Z,102302.59
2022-08-10T07:23:51.892Z,102303.59
2022-08-10T07:25:54.004Z,102304.44
2022-08-10T07:28:35.744Z,102298.72
2022-08-10T07:31:54.923Z,102302.84
2022-08-10T07:34:29.389Z,102299.97
2022-08-10T07:37:15.044Z,102302.06
2022-08-10T07:40:02.224Z,102307.16
2022-08-10T07:42:46.912Z,102298.13
2022-08-10T07:45:28.275Z,102300.53
2022-08-10T07:48:11.312Z,102308.38
2022-08-10T07:50:57.834Z,102310.75
2022-08-10T07:53:43.077Z,102309.72
2022-08-10T07:56:47.862Z,102314.91
2022-08-10T07:59:33.411Z,102311.38
2022-08-10T08:02:37.836Z,102315.84
2022-08-10T08:05:57.294Z,102304.09
2022-08-10T08:08:23.633Z,102299.47
2022-08-10T08:11:04.069Z,102301.81
2022-08-10T08:13:47.579Z,102309.81
2022-08-10T08:16:29.776Z,102311.47
2022-08-10T08:19:37.723Z,102309.09
2022-08-10T08:24:04.585Z,102312.31
2022-08-10T08:25:56.870Z,102297.53
2022-08-10T08:28:38.265Z,102303.66
2022-08-10T08:31:20.204Z,102303.31
2022-08-10T08:34:22.911Z,102298.06
2022-08-10T08:37:04.798Z,102300.69
2022-08-10T08:39:55.666Z,102305.53
2022-08-10T08:43:06.295Z,102291.28
2022-08-10T08:46:28.680Z,102291.47
2022-08-10T08:50:07.958Z,102292.03
2022-08-10T08:53:00.388Z,102283.53
2022-08-10T08:55:56.119Z,102290.72
2022-08-10T08:59:01.633Z,102295.84
2022-08-10T09:01:51.293Z,102286.56
2022-08-10T09:04:53.084Z,102284.66
2022-08-10T09:08:07.404Z,102286.31
2022-08-10T09:10:53.846Z,102286.00
2022-08-10T09:14:00.107Z,102280.00
2022-08-10T09:16:46.950Z,102282.56
2022-08-10T09:19:52.135Z,102272.16
2022-08-10T09:22:35.312Z,102274.41
2022-08-10T09:25:38.453Z,102264.94
2022-08-10T09:28:40.967Z,102269.50
2022-08-10T09:31:25.851Z,102271.84
2022-08-10T09:36:19.795Z,102253.38
2022-08-10T09:38:01.642Z,102262.09
2022-08-10T09:40:57.873Z,102250.31
2022-08-10T09:43:52.157Z,102246.81
2022-08-10T09:46:44.073Z,102250.47
2022-08-10T09:49:54.315Z,102251.41
2022-08-10T09:52:59.243Z,102253.03
2022-08-10T09:56:19.216Z,102251.00
2022-08-10T09:59:56.030Z,102243.91
2022-08-10T10:02:29.317Z,102239.38
2022-08-10T10:05:57.164Z,102244.47
2022-08-10T10:08:44.342Z,102245.59
2022-08-10T10:11:30.291Z,102237.97
2022-08-10T10:14:58.511Z,102243.91
2022-08-10T10:18:25.460Z,102232.47
2022-08-10T10:21:54.534Z,102226.69
2022-08-10T10:24:39.427Z,102230.25
2022-08-10T10:27:27.963Z,102223.59
2022-08-10T10:30:10.009Z,102228.28
2022-08-10T10:32:59.934Z,102224.31
2022-08-10T10:35:47.286Z,102217.66
2022-08-10T10:38:48.759Z,102217.47
2022-08-10T10:42:03.858Z,102209.75
2022-08-10T10:44:54.426Z,102201.63
2022-08-10T10:47:55.244Z,102198.22
2022-08-10T10:50:42.750Z,102201.84
2022-08-10T10:53:29.879Z,102196.25
2022-08-10T10:56:19.920Z,102203.81
2022-08-10T10:59:33.307Z,102192.91
2022-08-10T11:03:02.530Z,102193.44
2022-08-10T11:05:47.258Z,102192.59
2022-08-10T11:08:52.130Z,102193.25
2022-08-10T11:12:01.311Z,102196.09
2022-08-10T11:14:44.067Z,102195.03
2022-08-10T11:17:31.080Z,102191.47
2022-08-10T11:20:33.280Z,102193.59
2022-08-10T11:23:32.666Z,102185.94
2022-08-10T11:26:27.872Z,102191.47
2022-08-10T11:29:13.552Z,102181.84
2022-08-10T11:31:59.178Z,102181.81
2022-08-10T11:34:49.377Z,102182.09
2022-08-10T11:38:34.718Z,102175.44
2022-08-10T11:42:06.572Z,102180.44
2022-08-10T11:44:12.991Z,102167.97
2022-08-10T11:46:58.933Z,102174.06
2022-08-10T11:49:40.997Z,102173.28
2022-08-10T11:52:29.652Z,102179.19
2022-08-10T11:55:15.512Z,102168.56
2022-08-10T11:58:01.412Z,102165.91
2022-08-10T12:00:42.301Z,102158.78
2022-08-10T12:03:21.996Z,102158.91
2022-08-10T12:06:03.049Z,102152.28
2022-08-10T12:10:02.981Z,102155.59
2022-08-10T12:11:47.135Z,102148.69
2022-08-10T12:14:31.530Z,102151.75
2022-08-10T12:17:14.528Z,102151.75
2022-08-10T12:20:03.455Z,102147.88
2022-08-10T12:22:51.696Z,102141.28
2022-08-10T12:25:56.297Z,102138.53
2022-08-10T12:28:50.488Z,102130.16
2022-08-10T12:31:36.927Z,102123.59
2022-08-10T12:34:23.071Z,102132.00
2022-08-10T12:37:14.157Z,102122.44
2022-08-10T12:40:33.342Z,102123.09
2022-08-10T12:44:05.579Z,102113.94
2022-08-10T12:46:22.340Z,102118.31
2022-08-10T12:49:10.498Z,102111.94
2022-08-10T12:51:54.607Z,102115.88
2022-08-10T12:54:37.365Z,102103.69
2022-08-10T12:57:20.577Z,102096.31
2022-08-10T13:00:06.650Z,102091.97
2022-08-10T13:02:57.837Z,102098.56
2022-08-10T13:06:01.922Z,102086.06
2022-08-10T13:09:09.881Z,102083.81
2022-08-10T13:12:44.944Z,102077.59
2022-08-10T13:14:59.565Z,102072.41
2022-08-10T13:17:40.435Z,102085.25
2022-08-10T13:20:28.020Z,102075.84
2022-08-10T13:23:18.635Z,102077.28
2022-08-10T13:26:00.599Z,102068.66
2022-08-10T13:28:49.691Z,102075.25
2022-08-10T13:32:03.988Z,102062.38
2022-08-10T13:34:42.464Z,102056.28
2022-08-10T13:37:26.974Z,102056.28
2022-08-10T13:40:11.924Z,102062.31
2022-08-10T13:42:52.575Z,102051.84
2022-08-10T13:45:32.886Z,102051.34
2022-08-10T13:48:15.453Z,102051.81
2022-08-10T13:50:59.084Z,102057.91
2022-08-10T13:53:52.359Z,102049.28
2022-08-10T13:56:33.060Z,102044.44
2022-08-10T13:59:16.323Z,102041.59
2022-08-10T14:02:01.671Z,102039.25
2022-08-10T14:04:55.625Z,102046.38
2022-08-10T14:07:39.030Z,102033.66
2022-08-10T14:11:09.290Z,102033.41
2022-08-10T14:13:45.454Z,102025.78
2022-08-10T14:16:26.761Z,102028.50
2022-08-10T14:19:21.020Z,102023.16
2022-08-10T14:22:03.519Z,102028.31
2022-08-10T14:24:43.882Z,102013.97
2022-08-10T14:27:24.267Z,102024.25
2022-08-10T14:30:19.634Z,102024.38
2022-08-10T14:33:04.484Z,102024.56
2022-08-10T14:36:22.472Z,102011.13
2022-08-10T14:38:48.534Z,102012.22
2022-08-10T14:42:01.866Z,102009.69
2022-08-10T14:44:47.380Z,102004.34
2022-08-10T14:47:53.393Z,102004.09
2022-08-10T14:50:33.637Z,102003.84
2022-08-10T14:53:19.769Z,102001.84
2022-08-10T14:56:03.555Z,102007.72
2022-08-10T14:58:59.380Z,102003.91
2022-08-10T15:02:37.711Z,102003.53
2022-08-10T15:04:52.657Z,102003.41
2022-08-10T15:07:33.764Z,101991.88
2022-08-10T15:10:24.319Z,101987.22
2022-08-10T15:13:07.107Z,101987.94
2022-08-10T15:16:13.365Z,101987.00
2022-08-10T15:18:58.608Z,101993.84
2022-08-10T15:21:42.924Z,101993.25
2022-08-10T15:24:38.716Z,101986.13
2022-08-10T15:27:19.459Z,101980.06
2022-08-10T15:29:59.914Z,101985.53
2022-08-10T15:33:01.056Z,101979.84
2022-08-10T15:36:11.470Z,101991.28
2022-08-10T15:40:21.508Z,101988.31
2022-08-10T15:42:22.943Z,101982.84
2022-08-10T15:45:02.681Z,101990.22
2022-08-10T15:48:06.985Z,101979.72
2022-08-10T15:50:49.089Z,101979.25
2022-08-10T15:53:49.112Z,101979.72
2022-08-10T15:56:32.282Z,101978.94
2022-08-10T15:59:15.653Z,101979.91
2022-08-10T16:02:14.322Z,101968.38
2022-08-10T16:05:03.005Z,101969.44
2022-08-10T16:07:49.063Z,101964.81
2022-08-10T16:10:35.398Z,101965.28
2022-08-10T16:13:59.872Z,101962.81
2022-08-10T16:16:37.116Z,101959.00
2022-08-10T16:19:24.093Z,101961.84
2022-08-10T16:22:35.386Z,101958.81
2022-08-10T16:25:15.607Z,101961.53
2022-08-10T16:28:34.010Z,101961.47
2022-08-10T16:31:20.751Z,101962.69
2022-08-10T16:34:15.946Z,101967.38
2022-08-10T16:36:57.017Z,101964.88
2022-08-10T16:39:59.955Z,101959.50
2022-08-10T16:42:44.895Z,101959.66
2022-08-10T16:45:31.974Z,101952.56
2022-08-10T16:48:12.245Z,101954.22
2022-08-10T16:50:57.925Z,101954.44
2022-08-10T16:53:43.486Z,101946.34
2022-08-10T16:56:33.935Z,101948.03
2022-08-10T16:59:24.632Z,101939.69
2022-08-10T17:02:04.968Z,101944.97
2022-08-10T17:05:09.577Z,101944.84
2022-08-10T17:07:52.511Z,101943.78
2022-08-10T17:10:33.306Z,101945.91
2022-08-10T17:13:15.600Z,101941.13
2022-08-10T17:16:02.223Z,101946.63
2022-08-10T17:18:47.022Z,101942.84
2022-08-10T17:21:31.841Z,101934.28
2022-08-10T17:24:12.598Z,101935.41
2022-08-10T17:26:57.545Z,101934.03
2022-08-10T17:29:57.462Z,101937.34
2022-08-10T17:32:45.196Z,101938.41
2022-08-10T17:35:28.691Z,101932.81
2022-08-10T17:38:11.365Z,101931.84
2022-08-10T17:40:54.084Z,101925.97
2022-08-10T17:43:58.347Z,101924.16
2022-08-10T17:46:38.481Z,101923.56
2022-08-10T17:49:19.215Z,101923.22
2022-08-10T17:52:02.532Z,101918.22
2022-08-10T17:54:44.393Z,101922.91
2022-08-10T17:57:26.361Z,101925.47
2022-08-10T18:00:12.989Z,101921.69
2022-08-10T18:02:53.358Z,101925.69
2022-08-10T18:05:38.674Z,101926.16
2022-08-10T18:08:22.645Z,101921.59
2022-08-10T18:11:07.581Z,101933.13
2022-08-10T18:13:55.296Z,101929.78
2022-08-10T18:16:41.790Z,101929.84
2022-08-10T18:19:27.415Z,101927.19
2022-08-10T18:22:06.877Z,101922.81
2022-08-10T18:24:48.561Z,101923.72
2022-08-10T18:27:46.537Z,101927.91
2022-08-10T18:30:36.442Z,101926.28
2022-08-10T18:33:18.447Z,101930.72
2022-08-10T18:36:13.280Z,101931.13
2022-08-10T18:38:56.533Z,101933.88
2022-08-10T18:41:38.855Z,101939.56
2022-08-10T18:45:28.263Z,101942.13
2022-08-10T18:48:35.641Z,101941.13
2022-08-10T18:51:15.783Z,101939.91
2022-08-10T18:54:00.943Z,101941.59
2022-08-10T18:56:50.418Z,101935.72
2022-08-10T19:00:07.923Z,101940.38
2022-08-10T19:03:04.120Z,101938.50
2022-08-10T19:05:55.569Z,101941.19
2022-08-10T19:08:49.496Z,101942.84
2022-08-10T19:11:47.652Z,101937.03
2022-08-10T19:14:35.045Z,101928.00
2022-08-10T19:17:20.616Z,101931.50
2022-08-10T19:20:09.766Z,101928.19
2022-08-10T19:22:55.390Z,101933.34
2022-08-10T19:26:42.071Z,101936.47
2022-08-10T19:28:41.890Z,101938.91
2022-08-10T19:31:44.361Z,101940.13
2022-08-10T19:34:57.122Z,101941.50
2022-08-10T19:37:59.977Z,101939.16
2022-08-10T19:40:48.200Z,101941.41
2022-08-10T19:44:00.480Z,101941.97
2022-08-10T19:46:43.963Z,101945.38
2022-08-10T19:49:30.860Z,101950.78
2022-08-10T19:52:25.026Z,101949.19
2022-08-10T19:55:17.409Z,101947.69
2022-08-10T19:58:00.777Z,101943.22
2022-08-10T20:00:50.898Z,101944.41
2022-08-10T20:03:38.459Z,101944.34
2022-08-10T20:06:22.351Z,101944.06
2022-08-10T20:09:06.460Z,101947.06
2022-08-10T20:11:52.657Z,101945.34
2022-08-10T20:14:48.102Z,101949.47
2022-08-10T20:17:51.227Z,101945.38
2022-08-10T20:20:36.138Z,101943.78
2022-08-10T20:23:24.976Z,101945.41
2022-08-10T20:26:14.859Z,101949.91
2022-08-10T20:29:16.434Z,101951.47
2022-08-10T20:32:22.264Z,101950.13
2022-08-10T20:35:06.789Z,101949.38
2022-08-10T20:38:04.409Z,101952.00
2022-08-10T20:40:47.856Z,101954.81
2022-08-10T20:43:37.701Z,101946.78
2022-08-10T20:46:23.908Z,101955.66
2022-08-10T20:49:16.818Z,101950.31
2022-08-10T20:52:00.561Z,101955.44
2022-08-10T20:54:43.529Z,101959.72
2022-08-10T20:58:04.188Z,101963.13
2022-08-10T21:00:46.319Z,101960.91
2022-08-10T21:03:45.707Z,101949.97
2022-08-10T21:06:46.827Z,101949.06
2022-08-10T21:09:36.257Z,101952.69
2022-08-10T21:12:32.139Z,101951.16
2022-08-10T21:15:24.457Z,101947.53
2022-08-10T21:18:20.687Z,101949.75
2022-08-10T21:21:16.457Z,101946.09
2022-08-10T21:23:58.965Z,101949.16
2022-08-10T21:26:51.223Z,101946.63
2022-08-10T21:29:43.771Z,101949.06
2022-08-10T21:32:56.106Z,101936.13
2022-08-10T21:35:42.888Z,101941.34
2022-08-10T21:38:30.705Z,101941.72
2022-08-10T21:41:49.554Z,101940.75
2022-08-10T21:45:17.018Z,101936.06
2022-08-10T21:48:30.708Z,101935.59
2022-08-10T21:52:00.542Z,101936.31
2022-08-10T21:55:03.243Z,101934.50
2022-08-10T21:58:08.783Z,101928.81
2022-08-10T22:01:12.335Z,101932.06
2022-08-10T22:04:13.518Z,101936.44
2022-08-10T22:07:23.990Z,101936.31
2022-08-10T22:10:25.914Z,101942.25
2022-08-10T22:13:26.427Z,101940.09
2022-08-10T22:16:25.778Z,101938.75
2022-08-10T22:19:30.575Z,101926.81
2022-08-10T22:22:34.161Z,101930.06
2022-08-10T22:25:43.591Z,101936.81
2022-08-10T22:28:40.056Z,101938.16
2022-08-10T22:31:50.092Z,101936.63
2022-08-10T22:35:19.664Z,101931.09
2022-08-10T22:38:36.378Z,101939.00
2022-08-10T22:41:44.362Z,101938.53
2022-08-10T22:45:03.796Z,101937.19
2022-08-10T22:48:16.585Z,101939.22
2022-08-10T22:51:08.749Z,101936.22
2022-08-10T22:54:11.097Z,101931.84
2022-08-10T22:57:33.863Z,101928.81
2022-08-10T23:00:17.267Z,101937.91
2022-08-10T23:03:11.265Z,101932.03
2022-08-10T23:05:57.006Z,101930.72
2022-08-10T23:08:48.199Z,101932.56
2022-08-10T23:11:30.863Z,101938.13
2022-08-10T23:14:16.000Z,101937.63
2022-08-10T23:17:14.061Z,101934.22
2022-08-10T23:20:06.044Z,101927.53
2022-08-10T23:22:53.441Z,101925.19
2022-08-10T23:25:57.096Z,101934.59
2022-08-10T23:28:58.525Z,101934.09
2022-08-10T23:31:58.417Z,101936.47
2022-08-10T23:36:30.053Z,101930.22
2022-08-10T23:37:55.028Z,101928.72
2022-08-10T23:40:53.289Z,101928.56
2022-08-10T23:44:03.010Z,101917.47
2022-08-10T23:46:44.841Z,101920.84
2022-08-10T23:49:49.379Z,101926.03
2022-08-10T23:52:33.318Z,101922.84
2022-08-10T23:55:23.372Z,101924.81
2022-08-10T23:58:10.935Z,101924.34
